sensor_id;sensor_type;location;lat;lon;timestamp;temperature;humidity
27759;DHT22;15148;48.972;12.794;2023-08-12T00:00:46;15.40;99.90
27759;DHT22;15148;48.972;12.794;2023-08-12T00:05:48;15.40;99.90
27759;DHT22;15148;48.972;12.794;2023-08-12T00:10:50;15.40;99.90
27759;DHT22;15148;48.972;12.794;2023-08-12T00:15:52;15.30;99.90
27759;DHT22;15148;48.972;12.794;2023-08-12T00:20:54;15.30;99.90
27759;DHT22;15148;48.972;12.794;2023-08-12T00:25:58;15.20;99.90
27759;DHT22;15148;48.972;12.794;2023-08-12T00:31:00;15.10;99.90
27759;DHT22;15148;48.972;12.794;2023-08-12T00:36:02;15.00;99.90
27759;DHT22;15148;48.972;12.794;2023-08-12T00:41:04;14.90;99.90
27759;DHT22;15148;48.972;12.794;2023-08-12T00:46:06;14.90;99.90
27759;DHT22;15148;48.972;12.794;2023-08-12T00:51:08;14.90;99.90
27759;DHT22;15148;48.972;12.794;2023-08-12T00:56:10;14.90;99.90
27759;DHT22;15148;48.972;12.794;2023-08-12T01:01:13;14.90;99.90
27759;DHT22;15148;48.972;12.794;2023-08-12T01:06:16;15.00;99.90
27759;DHT22;15148;48.972;12.794;2023-08-12T01:16:48;14.90;99.90
27759;DHT22;15148;48.972;12.794;2023-08-12T01:21:52;14.90;99.90
27759;DHT22;15148;48.972;12.794;2023-08-12T01:26:54;14.90;99.90
27759;DHT22;15148;48.972;12.794;2023-08-12T01:37:08;14.70;99.90
27759;DHT22;15148;48.972;12.794;2023-08-12T01:42:13;14.70;99.90
27759;DHT22;15148;48.972;12.794;2023-08-12T01:47:15;14.70;99.90
27759;DHT22;15148;48.972;12.794;2023-08-12T01:52:17;14.60;99.90
27759;DHT22;15148;48.972;12.794;2023-08-12T01:57:19;14.60;99.90
27759;DHT22;15148;48.972;12.794;2023-08-12T02:02:21;14.60;99.90
27759;DHT22;15148;48.972;12.794;2023-08-12T02:07:24;14.60;99.90
27759;DHT22;15148;48.972;12.794;2023-08-12T02:12:26;14.50;99.90
27759;DHT22;15148;48.972;12.794;2023-08-12T02:17:28;14.50;99.90
27759;DHT22;15148;48.972;12.794;2023-08-12T02:22:30;14.50;99.90
27759;DHT22;15148;48.972;12.794;2023-08-12T02:27:32;14.40;99.90
27759;DHT22;15148;48.972;12.794;2023-08-12T02:32:34;14.40;99.90
27759;DHT22;15148;48.972;12.794;2023-08-12T02:37:36;14.40;99.90
27759;DHT22;15148;48.972;12.794;2023-08-12T02:42:38;14.30;99.90
27759;DHT22;15148;48.972;12.794;2023-08-12T02:47:39;14.30;99.90
27759;DHT22;15148;48.972;12.794;2023-08-12T02:52:41;14.30;99.90
27759;DHT22;15148;48.972;12.794;2023-08-12T02:57:43;14.20;99.90
27759;DHT22;15148;48.972;12.794;2023-08-12T03:02:45;14.10;99.90
27759;DHT22;15148;48.972;12.794;2023-08-12T03:07:47;14.10;99.90
27759;DHT22;15148;48.972;12.794;2023-08-12T03:12:49;14.20;99.90
27759;DHT22;15148;48.972;12.794;2023-08-12T03:17:53;14.10;99.90
27759;DHT22;15148;48.972;12.794;2023-08-12T03:22:55;14.20;99.90
27759;DHT22;15148;48.972;12.794;2023-08-12T03:27:57;14.10;99.90
27759;DHT22;15148;48.972;12.794;2023-08-12T03:33:01;14.10;99.90
27759;DHT22;15148;48.972;12.794;2023-08-12T03:38:06;14.10;99.90
27759;DHT22;15148;48.972;12.794;2023-08-12T03:43:08;14.00;99.90
27759;DHT22;15148;48.972;12.794;2023-08-12T03:48:11;14.00;99.90
27759;DHT22;15148;48.972;12.794;2023-08-12T03:53:14;14.00;99.90
27759;DHT22;15148;48.972;12.794;2023-08-12T03:58:16;13.90;99.90
27759;DHT22;15148;48.972;12.794;2023-08-12T04:03:19;14.00;99.90
27759;DHT22;15148;48.972;12.794;2023-08-12T04:08:23;13.90;99.90
27759;DHT22;15148;48.972;12.794;2023-08-12T04:13:26;13.80;99.90
27759;DHT22;15148;48.972;12.794;2023-08-12T04:18:28;13.70;99.90
27759;DHT22;15148;48.972;12.794;2023-08-12T04:23:30;13.70;99.90
27759;DHT22;15148;48.972;12.794;2023-08-12T04:28:32;13.70;99.90
27759;DHT22;15148;48.972;12.794;2023-08-12T04:33:34;13.70;99.90
27759;DHT22;15148;48.972;12.794;2023-08-12T04:38:36;13.80;99.90
27759;DHT22;15148;48.972;12.794;2023-08-12T04:43:41;13.70;99.90
27759;DHT22;15148;48.972;12.794;2023-08-12T04:48:44;13.80;99.90
27759;DHT22;15148;48.972;12.794;2023-08-12T04:53:46;13.90;99.90
27759;DHT22;15148;48.972;12.794;2023-08-12T04:58:48;13.90;99.90
27759;DHT22;15148;48.972;12.794;2023-08-12T05:03:50;13.90;99.90
27759;DHT22;15148;48.972;12.794;2023-08-12T05:08:53;13.90;99.90
27759;DHT22;15148;48.972;12.794;2023-08-12T05:13:55;13.90;99.90
27759;DHT22;15148;48.972;12.794;2023-08-12T05:18:56;14.00;99.90
27759;DHT22;15148;48.972;12.794;2023-08-12T05:23:58;14.10;99.90
27759;DHT22;15148;48.972;12.794;2023-08-12T05:29:01;14.30;99.90
27759;DHT22;15148;48.972;12.794;2023-08-12T05:34:04;14.40;99.90
27759;DHT22;15148;48.972;12.794;2023-08-12T05:39:06;14.50;99.90
27759;DHT22;15148;48.972;12.794;2023-08-12T05:44:08;14.70;99.90
27759;DHT22;15148;48.972;12.794;2023-08-12T05:49:10;14.80;99.90
27759;DHT22;15148;48.972;12.794;2023-08-12T05:54:11;15.00;99.90
27759;DHT22;15148;48.972;12.794;2023-08-12T05:59:13;15.10;99.90
27759;DHT22;15148;48.972;12.794;2023-08-12T06:04:15;15.20;99.90
27759;DHT22;15148;48.972;12.794;2023-08-12T06:09:17;15.50;99.90
27759;DHT22;15148;48.972;12.794;2023-08-12T06:14:19;15.70;99.90
27759;DHT22;15148;48.972;12.794;2023-08-12T06:19:21;16.10;99.90
27759;DHT22;15148;48.972;12.794;2023-08-12T06:24:23;16.40;99.90
27759;DHT22;15148;48.972;12.794;2023-08-12T06:29:25;16.70;99.90
27759;DHT22;15148;48.972;12.794;2023-08-12T06:34:27;17.10;99.90
27759;DHT22;15148;48.972;12.794;2023-08-12T06:39:29;17.50;99.90
27759;DHT22;15148;48.972;12.794;2023-08-12T06:44:31;17.90;99.90
27759;DHT22;15148;48.972;12.794;2023-08-12T06:49:33;18.20;99.90
27759;DHT22;15148;48.972;12.794;2023-08-12T06:54:34;18.70;99.90
27759;DHT22;15148;48.972;12.794;2023-08-12T06:59:37;19.20;99.90
27759;DHT22;15148;48.972;12.794;2023-08-12T07:04:39;19.60;99.90
27759;DHT22;15148;48.972;12.794;2023-08-12T07:09:41;20.00;99.90
27759;DHT22;15148;48.972;12.794;2023-08-12T07:14:42;20.40;99.90
27759;DHT22;15148;48.972;12.794;2023-08-12T07:19:44;20.70;99.90
27759;DHT22;15148;48.972;12.794;2023-08-12T07:24:46;21.10;99.90
27759;DHT22;15148;48.972;12.794;2023-08-12T07:29:48;21.60;99.90
27759;DHT22;15148;48.972;12.794;2023-08-12T07:34:50;21.80;99.90
27759;DHT22;15148;48.972;12.794;2023-08-12T07:39:52;22.10;99.90
27759;DHT22;15148;48.972;12.794;2023-08-12T07:44:54;22.40;99.90
27759;DHT22;15148;48.972;12.794;2023-08-12T07:49:56;22.60;99.90
27759;DHT22;15148;48.972;12.794;2023-08-12T07:54:57;22.80;99.90
27759;DHT22;15148;48.972;12.794;2023-08-12T07:59:59;23.00;99.90
27759;DHT22;15148;48.972;12.794;2023-08-12T08:05:01;23.30;99.90
27759;DHT22;15148;48.972;12.794;2023-08-12T08:10:05;23.60;99.90
27759;DHT22;15148;48.972;12.794;2023-08-12T08:15:07;23.70;99.90
27759;DHT22;15148;48.972;12.794;2023-08-12T08:20:09;23.70;99.90
27759;DHT22;15148;48.972;12.794;2023-08-12T08:25:12;23.80;99.90
27759;DHT22;15148;48.972;12.794;2023-08-12T08:30:14;24.10;99.90
27759;DHT22;15148;48.972;12.794;2023-08-12T08:35:16;24.40;99.90
27759;DHT22;15148;48.972;12.794;2023-08-12T08:40:18;24.50;99.90
27759;DHT22;15148;48.972;12.794;2023-08-12T08:45:22;24.70;99.90
27759;DHT22;15148;48.972;12.794;2023-08-12T08:50:25;24.90;99.90
27759;DHT22;15148;48.972;12.794;2023-08-12T08:55:27;25.20;99.90
27759;DHT22;15148;48.972;12.794;2023-08-12T09:00:29;25.40;99.90
27759;DHT22;15148;48.972;12.794;2023-08-12T09:05:32;25.20;99.90
27759;DHT22;15148;48.972;12.794;2023-08-12T09:10:36;25.10;99.90
27759;DHT22;15148;48.972;12.794;2023-08-12T09:15:39;25.10;99.90
27759;DHT22;15148;48.972;12.794;2023-08-12T09:20:41;25.30;99.90
27759;DHT22;15148;48.972;12.794;2023-08-12T09:25:45;25.50;99.90
27759;DHT22;15148;48.972;12.794;2023-08-12T09:30:50;25.60;99.90
27759;DHT22;15148;48.972;12.794;2023-08-12T09:35:54;25.80;99.90
27759;DHT22;15148;48.972;12.794;2023-08-12T09:40:58;26.00;99.90
27759;DHT22;15148;48.972;12.794;2023-08-12T09:51:03;26.20;99.90
27759;DHT22;15148;48.972;12.794;2023-08-12T09:56:11;26.20;99.90
27759;DHT22;15148;48.972;12.794;2023-08-12T10:01:17;26.10;99.90
27759;DHT22;15148;48.972;12.794;2023-08-12T10:06:20;26.20;99.90
27759;DHT22;15148;48.972;12.794;2023-08-12T10:11:22;26.20;99.90
27759;DHT22;15148;48.972;12.794;2023-08-12T10:16:24;26.10;99.90
27759;DHT22;15148;48.972;12.794;2023-08-12T10:21:27;26.20;99.90
27759;DHT22;15148;48.972;12.794;2023-08-12T10:26:30;26.20;99.90
27759;DHT22;15148;48.972;12.794;2023-08-12T10:31:32;26.20;99.90
27759;DHT22;15148;48.972;12.794;2023-08-12T10:36:34;26.20;99.90
27759;DHT22;15148;48.972;12.794;2023-08-12T10:41:54;26.60;99.90
27759;DHT22;15148;48.972;12.794;2023-08-12T10:46:58;26.90;99.90
27759;DHT22;15148;48.972;12.794;2023-08-12T10:52:01;27.10;99.90
27759;DHT22;15148;48.972;12.794;2023-08-12T10:57:10;27.20;99.90
27759;DHT22;15148;48.972;12.794;2023-08-12T11:17:58;27.10;99.90
27759;DHT22;15148;48.972;12.794;2023-08-12T11:23:00;27.20;99.90
27759;DHT22;15148;48.972;12.794;2023-08-12T11:28:04;27.30;99.90
27759;DHT22;15148;48.972;12.794;2023-08-12T11:33:07;27.30;99.90
27759;DHT22;15148;48.972;12.794;2023-08-12T11:38:09;27.10;99.90
27759;DHT22;15148;48.972;12.794;2023-08-12T11:43:11;26.90;99.90
27759;DHT22;15148;48.972;12.794;2023-08-12T11:48:13;26.60;99.90
27759;DHT22;15148;48.972;12.794;2023-08-12T11:53:15;26.30;99.90
27759;DHT22;15148;48.972;12.794;2023-08-12T11:58:17;26.20;99.90
27759;DHT22;15148;48.972;12.794;2023-08-12T12:03:20;26.00;99.90
27759;DHT22;15148;48.972;12.794;2023-08-12T12:08:22;26.00;99.90
27759;DHT22;15148;48.972;12.794;2023-08-12T12:13:24;26.00;99.90
27759;DHT22;15148;48.972;12.794;2023-08-12T12:18:27;25.90;99.90
27759;DHT22;15148;48.972;12.794;2023-08-12T12:23:30;25.90;99.90
27759;DHT22;15148;48.972;12.794;2023-08-12T12:28:32;25.80;99.90
27759;DHT22;15148;48.972;12.794;2023-08-12T12:33:34;25.60;99.90
27759;DHT22;15148;48.972;12.794;2023-08-12T12:38:36;25.80;99.90
27759;DHT22;15148;48.972;12.794;2023-08-12T12:43:38;26.10;99.90
27759;DHT22;15148;48.972;12.794;2023-08-12T12:48:40;26.50;99.90
27759;DHT22;15148;48.972;12.794;2023-08-12T12:53:42;26.80;99.90
27759;DHT22;15148;48.972;12.794;2023-08-12T12:58:44;27.00;99.90
27759;DHT22;15148;48.972;12.794;2023-08-12T13:03:46;27.20;99.90
27759;DHT22;15148;48.972;12.794;2023-08-12T13:08:48;27.30;99.90
27759;DHT22;15148;48.972;12.794;2023-08-12T13:13:51;27.50;99.90
27759;DHT22;15148;48.972;12.794;2023-08-12T13:18:53;27.70;99.90
27759;DHT22;15148;48.972;12.794;2023-08-12T13:23:55;27.80;99.90
27759;DHT22;15148;48.972;12.794;2023-08-12T13:28:57;27.80;99.90
27759;DHT22;15148;48.972;12.794;2023-08-12T13:33:59;27.70;99.90
27759;DHT22;15148;48.972;12.794;2023-08-12T13:39:01;27.50;99.90
27759;DHT22;15148;48.972;12.794;2023-08-12T13:44:03;27.40;99.90
27759;DHT22;15148;48.972;12.794;2023-08-12T13:49:05;27.50;99.90
27759;DHT22;15148;48.972;12.794;2023-08-12T13:54:07;27.60;99.90
27759;DHT22;15148;48.972;12.794;2023-08-12T13:59:09;27.50;99.90
27759;DHT22;15148;48.972;12.794;2023-08-12T14:04:11;27.40;99.90
27759;DHT22;15148;48.972;12.794;2023-08-12T14:09:13;27.50;99.90
27759;DHT22;15148;48.972;12.794;2023-08-12T14:14:15;27.30;99.90
27759;DHT22;15148;48.972;12.794;2023-08-12T14:19:18;27.40;99.90
27759;DHT22;15148;48.972;12.794;2023-08-12T14:24:20;27.20;99.90
27759;DHT22;15148;48.972;12.794;2023-08-12T14:29:23;26.80;99.90
27759;DHT22;15148;48.972;12.794;2023-08-12T14:34:25;26.60;99.90
27759;DHT22;15148;48.972;12.794;2023-08-12T14:39:27;26.40;99.90
27759;DHT22;15148;48.972;12.794;2023-08-12T14:44:29;26.20;99.90
27759;DHT22;15148;48.972;12.794;2023-08-12T14:49:38;25.80;99.90
27759;DHT22;15148;48.972;12.794;2023-08-12T14:54:40;25.60;99.90
27759;DHT22;15148;48.972;12.794;2023-08-12T14:59:42;25.60;99.90
27759;DHT22;15148;48.972;12.794;2023-08-12T15:04:44;25.50;99.90
27759;DHT22;15148;48.972;12.794;2023-08-12T15:09:46;25.30;99.90
27759;DHT22;15148;48.972;12.794;2023-08-12T15:14:48;25.30;99.90
27759;DHT22;15148;48.972;12.794;2023-08-12T15:19:50;25.30;99.90
27759;DHT22;15148;48.972;12.794;2023-08-12T15:24:52;25.40;99.90
27759;DHT22;15148;48.972;12.794;2023-08-12T15:29:54;25.50;99.90
27759;DHT22;15148;48.972;12.794;2023-08-12T15:34:56;25.30;99.90
27759;DHT22;15148;48.972;12.794;2023-08-12T15:39:58;25.30;99.90
27759;DHT22;15148;48.972;12.794;2023-08-12T15:45:00;25.20;99.90
27759;DHT22;15148;48.972;12.794;2023-08-12T15:50:06;25.20;99.90
27759;DHT22;15148;48.972;12.794;2023-08-12T15:55:08;25.10;99.90
27759;DHT22;15148;48.972;12.794;2023-08-12T16:00:10;25.00;99.90
27759;DHT22;15148;48.972;12.794;2023-08-12T16:05:13;25.00;99.90
27759;DHT22;15148;48.972;12.794;2023-08-12T16:10:15;24.90;99.90
27759;DHT22;15148;48.972;12.794;2023-08-12T16:15:17;24.70;99.90
27759;DHT22;15148;48.972;12.794;2023-08-12T16:20:19;24.50;99.90
27759;DHT22;15148;48.972;12.794;2023-08-12T16:25:21;24.30;99.90
27759;DHT22;15148;48.972;12.794;2023-08-12T16:30:23;24.10;99.90
27759;DHT22;15148;48.972;12.794;2023-08-12T16:35:25;24.00;99.90
27759;DHT22;15148;48.972;12.794;2023-08-12T16:40:27;23.90;99.90
27759;DHT22;15148;48.972;12.794;2023-08-12T16:45:31;23.80;99.90
27759;DHT22;15148;48.972;12.794;2023-08-12T16:50:33;23.70;99.90
27759;DHT22;15148;48.972;12.794;2023-08-12T16:55:35;23.60;99.90
27759;DHT22;15148;48.972;12.794;2023-08-12T17:00:37;23.50;99.90
27759;DHT22;15148;48.972;12.794;2023-08-12T17:05:39;23.40;99.90
27759;DHT22;15148;48.972;12.794;2023-08-12T17:10:41;23.40;99.90
27759;DHT22;15148;48.972;12.794;2023-08-12T17:15:43;23.20;99.90
27759;DHT22;15148;48.972;12.794;2023-08-12T17:20:47;23.10;99.90
27759;DHT22;15148;48.972;12.794;2023-08-12T17:25:49;23.10;99.90
27759;DHT22;15148;48.972;12.794;2023-08-12T17:30:51;23.10;99.90
27759;DHT22;15148;48.972;12.794;2023-08-12T17:35:54;23.00;99.90
27759;DHT22;15148;48.972;12.794;2023-08-12T17:40:57;23.00;99.90
27759;DHT22;15148;48.972;12.794;2023-08-12T17:45:59;23.20;99.90
27759;DHT22;15148;48.972;12.794;2023-08-12T17:51:01;23.40;99.90
27759;DHT22;15148;48.972;12.794;2023-08-12T17:56:03;23.30;99.90
27759;DHT22;15148;48.972;12.794;2023-08-12T18:01:05;23.20;99.90
27759;DHT22;15148;48.972;12.794;2023-08-12T18:06:08;23.10;99.90
27759;DHT22;15148;48.972;12.794;2023-08-12T18:11:10;23.00;99.90
27759;DHT22;15148;48.972;12.794;2023-08-12T18:16:13;22.80;99.90
27759;DHT22;15148;48.972;12.794;2023-08-12T18:21:15;22.70;99.90
27759;DHT22;15148;48.972;12.794;2023-08-12T18:26:19;22.60;99.90
27759;DHT22;15148;48.972;12.794;2023-08-12T18:31:21;22.40;99.90
27759;DHT22;15148;48.972;12.794;2023-08-12T18:36:23;22.30;99.90
27759;DHT22;15148;48.972;12.794;2023-08-12T18:41:25;22.20;99.90
27759;DHT22;15148;48.972;12.794;2023-08-12T18:46:27;22.10;99.90
27759;DHT22;15148;48.972;12.794;2023-08-12T18:51:29;22.00;99.90
27759;DHT22;15148;48.972;12.794;2023-08-12T18:56:31;22.00;99.90
27759;DHT22;15148;48.972;12.794;2023-08-12T19:01:33;21.80;99.90
27759;DHT22;15148;48.972;12.794;2023-08-12T19:06:34;21.70;99.90
27759;DHT22;15148;48.972;12.794;2023-08-12T19:11:36;21.60;99.90
27759;DHT22;15148;48.972;12.794;2023-08-12T19:16:38;21.50;99.90
27759;DHT22;15148;48.972;12.794;2023-08-12T19:21:40;21.50;99.90
27759;DHT22;15148;48.972;12.794;2023-08-12T19:26:42;21.40;99.90
27759;DHT22;15148;48.972;12.794;2023-08-12T19:31:44;21.30;99.90
27759;DHT22;15148;48.972;12.794;2023-08-12T19:36:46;21.20;99.90
27759;DHT22;15148;48.972;12.794;2023-08-12T19:41:48;21.10;99.90
27759;DHT22;15148;48.972;12.794;2023-08-12T19:46:50;21.00;99.90
27759;DHT22;15148;48.972;12.794;2023-08-12T19:51:52;20.80;99.90
27759;DHT22;15148;48.972;12.794;2023-08-12T19:56:54;20.60;99.90
27759;DHT22;15148;48.972;12.794;2023-08-12T20:01:57;20.50;99.90
27759;DHT22;15148;48.972;12.794;2023-08-12T20:06:59;20.40;99.90
27759;DHT22;15148;48.972;12.794;2023-08-12T20:12:02;20.40;99.90
27759;DHT22;15148;48.972;12.794;2023-08-12T20:17:04;20.30;99.90
27759;DHT22;15148;48.972;12.794;2023-08-12T20:22:06;20.20;99.90
27759;DHT22;15148;48.972;12.794;2023-08-12T20:27:10;20.20;99.90
27759;DHT22;15148;48.972;12.794;2023-08-12T20:32:12;20.10;99.90
27759;DHT22;15148;48.972;12.794;2023-08-12T20:37:15;20.10;99.90
27759;DHT22;15148;48.972;12.794;2023-08-12T20:42:17;20.10;99.90
27759;DHT22;15148;48.972;12.794;2023-08-12T20:47:19;20.10;99.90
27759;DHT22;15148;48.972;12.794;2023-08-12T20:52:24;20.10;99.90
27759;DHT22;15148;48.972;12.794;2023-08-12T20:57:26;20.10;99.90
27759;DHT22;15148;48.972;12.794;2023-08-12T21:02:28;20.10;99.90
27759;DHT22;15148;48.972;12.794;2023-08-12T21:07:30;20.10;99.90
27759;DHT22;15148;48.972;12.794;2023-08-12T21:12:32;20.00;99.90
27759;DHT22;15148;48.972;12.794;2023-08-12T21:17:34;19.90;99.90
27759;DHT22;15148;48.972;12.794;2023-08-12T21:22:36;19.90;99.90
27759;DHT22;15148;48.972;12.794;2023-08-12T21:27:38;19.80;99.90
27759;DHT22;15148;48.972;12.794;2023-08-12T21:32:40;19.80;99.90
27759;DHT22;15148;48.972;12.794;2023-08-12T21:37:42;19.70;99.90
27759;DHT22;15148;48.972;12.794;2023-08-12T21:42:44;19.70;99.90
27759;DHT22;15148;48.972;12.794;2023-08-12T21:47:46;19.50;99.90
27759;DHT22;15148;48.972;12.794;2023-08-12T21:52:48;19.50;99.90
27759;DHT22;15148;48.972;12.794;2023-08-12T21:57:50;19.50;99.90
27759;DHT22;15148;48.972;12.794;2023-08-12T22:02:54;19.40;99.90
27759;DHT22;15148;48.972;12.794;2023-08-12T22:07:56;19.30;99.90
27759;DHT22;15148;48.972;12.794;2023-08-12T22:12:58;19.20;99.90
27759;DHT22;15148;48.972;12.794;2023-08-12T22:18:00;19.20;99.90
27759;DHT22;15148;48.972;12.794;2023-08-12T22:23:02;19.10;99.90
27759;DHT22;15148;48.972;12.794;2023-08-12T22:28:04;19.20;99.90
27759;DHT22;15148;48.972;12.794;2023-08-12T22:33:06;19.20;99.90
27759;DHT22;15148;48.972;12.794;2023-08-12T22:38:09;19.20;99.90
27759;DHT22;15148;48.972;12.794;2023-08-12T22:43:11;19.10;99.90
27759;DHT22;15148;48.972;12.794;2023-08-12T22:48:13;19.10;99.90
27759;DHT22;15148;48.972;12.794;2023-08-12T22:53:14;19.10;99.90
27759;DHT22;15148;48.972;12.794;2023-08-12T22:58:16;19.00;99.90
27759;DHT22;15148;48.972;12.794;2023-08-12T23:03:18;18.90;99.90
27759;DHT22;15148;48.972;12.794;2023-08-12T23:08:20;18.80;99.90
27759;DHT22;15148;48.972;12.794;2023-08-12T23:13:22;18.80;99.90
27759;DHT22;15148;48.972;12.794;2023-08-12T23:18:24;18.70;99.90
27759;DHT22;15148;48.972;12.794;2023-08-12T23:23:27;18.70;99.90
27759;DHT22;15148;48.972;12.794;2023-08-12T23:28:29;18.60;99.90
27759;DHT22;15148;48.972;12.794;2023-08-12T23:33:30;18.50;99.90
27759;DHT22;15148;48.972;12.794;2023-08-12T23:38:32;18.50;99.90
27759;DHT22;15148;48.972;12.794;2023-08-12T23:43:34;18.40;99.90
27759;DHT22;15148;48.972;12.794;2023-08-12T23:48:36;18.40;99.90
27759;DHT22;15148;48.972;12.794;2023-08-12T23:53:38;18.30;99.90
27759;DHT22;15148;48.972;12.794;2023-08-12T23:58:40;18.20;99.90
